sensor_id;sensor_type;location;lat;lon;timestamp;P1;durP1;ratioP1;P2;durP2;ratioP2
46931;SDS011;32670;51.464;11.964;2023-11-21T00:01:31;4.00;;;3.70;;
46931;SDS011;32670;51.464;11.964;2023-11-21T00:03:57;4.00;;;3.57;;
46931;SDS011;32670;51.464;11.964;2023-11-21T00:06:23;4.03;;;3.73;;
46931;SDS011;32670;51.464;11.964;2023-11-21T00:08:48;3.47;;;3.10;;
46931;SDS011;32670;51.464;11.964;2023-11-21T00:11:14;4.57;;;3.30;;
46931;SDS011;32670;51.464;11.964;2023-11-21T00:13:39;3.77;;;3.47;;
46931;SDS011;32670;51.464;11.964;2023-11-21T00:16:05;7.90;;;3.83;;
46931;SDS011;32670;51.464;11.964;2023-11-21T00:18:30;3.70;;;3.40;;
46931;SDS011;32670;51.464;11.964;2023-11-21T00:20:56;3.40;;;3.10;;
46931;SDS011;32670;51.464;11.964;2023-11-21T00:23:23;3.43;;;3.10;;
46931;SDS011;32670;51.464;11.964;2023-11-21T00:25:49;3.70;;;3.40;;
46931;SDS011;32670;51.464;11.964;2023-11-21T00:28:14;3.73;;;3.43;;
46931;SDS011;32670;51.464;11.964;2023-11-21T00:30:40;4.10;;;3.10;;
46931;SDS011;32670;51.464;11.964;2023-11-21T00:33:05;6.07;;;3.47;;
46931;SDS011;32670;51.464;11.964;2023-11-21T00:35:31;3.70;;;3.40;;
46931;SDS011;32670;51.464;11.964;2023-11-21T00:37:56;3.97;;;3.67;;
46931;SDS011;32670;51.464;11.964;2023-11-21T00:40:23;3.93;;;3.33;;
46931;SDS011;32670;51.464;11.964;2023-11-21T00:42:49;3.50;;;3.20;;
46931;SDS011;32670;51.464;11.964;2023-11-21T00:45:15;9.03;;;3.47;;
46931;SDS011;32670;51.464;11.964;2023-11-21T00:47:40;4.40;;;3.50;;
46931;SDS011;32670;51.464;11.964;2023-11-21T00:50:07;7.40;;;3.63;;
46931;SDS011;32670;51.464;11.964;2023-11-21T00:52:33;6.23;;;3.70;;
46931;SDS011;32670;51.464;11.964;2023-11-21T00:54:59;4.07;;;3.50;;
46931;SDS011;32670;51.464;11.964;2023-11-21T00:57:25;4.67;;;3.50;;
46931;SDS011;32670;51.464;11.964;2023-11-21T00:59:51;9.10;;;3.73;;
46931;SDS011;32670;51.464;11.964;2023-11-21T01:02:16;6.87;;;4.03;;
46931;SDS011;32670;51.464;11.964;2023-11-21T01:04:42;6.63;;;3.47;;
46931;SDS011;32670;51.464;11.964;2023-11-21T01:07:08;3.90;;;3.50;;
46931;SDS011;32670;51.464;11.964;2023-11-21T01:09:34;11.13;;;3.30;;
46931;SDS011;32670;51.464;11.964;2023-11-21T01:11:59;7.07;;;3.67;;
46931;SDS011;32670;51.464;11.964;2023-11-21T01:14:25;5.63;;;3.77;;
46931;SDS011;32670;51.464;11.964;2023-11-21T01:16:54;4.57;;;3.67;;
46931;SDS011;32670;51.464;11.964;2023-11-21T01:19:19;6.20;;;3.80;;
46931;SDS011;32670;51.464;11.964;2023-11-21T01:21:45;5.50;;;3.60;;
46931;SDS011;32670;51.464;11.964;2023-11-21T01:24:10;3.60;;;3.30;;
46931;SDS011;32670;51.464;11.964;2023-11-21T01:26:36;4.27;;;3.50;;
46931;SDS011;32670;51.464;11.964;2023-11-21T01:29:01;5.67;;;3.53;;
46931;SDS011;32670;51.464;11.964;2023-11-21T01:31:27;5.23;;;3.60;;
46931;SDS011;32670;51.464;11.964;2023-11-21T01:33:54;3.43;;;3.13;;
46931;SDS011;32670;51.464;11.964;2023-11-21T01:36:20;6.73;;;3.43;;
46931;SDS011;32670;51.464;11.964;2023-11-21T01:38:46;3.83;;;3.30;;
46931;SDS011;32670;51.464;11.964;2023-11-21T01:41:14;5.17;;;3.60;;
46931;SDS011;32670;51.464;11.964;2023-11-21T01:43:40;7.07;;;3.37;;
46931;SDS011;32670;51.464;11.964;2023-11-21T01:46:06;3.50;;;3.10;;
46931;SDS011;32670;51.464;11.964;2023-11-21T01:48:33;5.73;;;3.20;;
46931;SDS011;32670;51.464;11.964;2023-11-21T01:50:59;3.97;;;3.40;;
46931;SDS011;32670;51.464;11.964;2023-11-21T01:53:25;3.57;;;3.27;;
46931;SDS011;32670;51.464;11.964;2023-11-21T01:55:51;5.77;;;3.50;;
46931;SDS011;32670;51.464;11.964;2023-11-21T01:58:16;4.00;;;3.60;;
46931;SDS011;32670;51.464;11.964;2023-11-21T02:00:42;5.03;;;3.30;;
46931;SDS011;32670;51.464;11.964;2023-11-21T02:03:08;5.23;;;3.20;;
46931;SDS011;32670;51.464;11.964;2023-11-21T02:05:35;3.77;;;3.17;;
46931;SDS011;32670;51.464;11.964;2023-11-21T02:08:01;3.20;;;2.83;;
46931;SDS011;32670;51.464;11.964;2023-11-21T02:10:27;5.93;;;3.17;;
46931;SDS011;32670;51.464;11.964;2023-11-21T02:12:54;4.23;;;3.10;;
46931;SDS011;32670;51.464;11.964;2023-11-21T02:15:21;6.13;;;3.57;;
46931;SDS011;32670;51.464;11.964;2023-11-21T02:17:48;3.83;;;3.27;;
46931;SDS011;32670;51.464;11.964;2023-11-21T02:20:18;4.47;;;3.30;;
46931;SDS011;32670;51.464;11.964;2023-11-21T02:25:20;3.40;;;3.10;;
46931;SDS011;32670;51.464;11.964;2023-11-21T02:27:46;3.57;;;3.20;;
46931;SDS011;32670;51.464;11.964;2023-11-21T02:30:13;4.27;;;3.30;;
46931;SDS011;32670;51.464;11.964;2023-11-21T02:32:39;3.47;;;3.17;;
46931;SDS011;32670;51.464;11.964;2023-11-21T02:35:07;5.87;;;3.13;;
46931;SDS011;32670;51.464;11.964;2023-11-21T02:37:34;3.40;;;3.10;;
46931;SDS011;32670;51.464;11.964;2023-11-21T02:40:00;6.57;;;3.37;;
46931;SDS011;32670;51.464;11.964;2023-11-21T02:42:30;4.47;;;3.27;;
46931;SDS011;32670;51.464;11.964;2023-11-21T02:44:55;3.80;;;3.50;;
46931;SDS011;32670;51.464;11.964;2023-11-21T02:47:22;9.73;;;4.23;;
46931;SDS011;32670;51.464;11.964;2023-11-21T02:49:48;4.33;;;3.40;;
46931;SDS011;32670;51.464;11.964;2023-11-21T02:52:13;3.93;;;3.50;;
46931;SDS011;32670;51.464;11.964;2023-11-21T02:54:39;4.60;;;3.70;;
46931;SDS011;32670;51.464;11.964;2023-11-21T02:57:04;5.57;;;3.37;;
46931;SDS011;32670;51.464;11.964;2023-11-21T02:59:30;3.80;;;3.40;;
46931;SDS011;32670;51.464;11.964;2023-11-21T03:01:56;4.70;;;3.27;;
46931;SDS011;32670;51.464;11.964;2023-11-21T03:04:22;4.17;;;3.73;;
46931;SDS011;32670;51.464;11.964;2023-11-21T03:06:47;3.90;;;3.40;;
46931;SDS011;32670;51.464;11.964;2023-11-21T03:09:13;3.97;;;3.17;;
46931;SDS011;32670;51.464;11.964;2023-11-21T03:11:38;3.63;;;3.17;;
46931;SDS011;32670;51.464;11.964;2023-11-21T03:14:04;4.47;;;3.67;;
46931;SDS011;32670;51.464;11.964;2023-11-21T03:16:30;3.53;;;3.13;;
46931;SDS011;32670;51.464;11.964;2023-11-21T03:18:56;3.57;;;3.27;;
46931;SDS011;32670;51.464;11.964;2023-11-21T03:21:22;6.27;;;3.33;;
46931;SDS011;32670;51.464;11.964;2023-11-21T03:23:48;4.30;;;3.07;;
46931;SDS011;32670;51.464;11.964;2023-11-21T03:26:13;3.83;;;3.37;;
46931;SDS011;32670;51.464;11.964;2023-11-21T03:28:39;6.07;;;3.30;;
46931;SDS011;32670;51.464;11.964;2023-11-21T03:31:04;3.77;;;3.33;;
46931;SDS011;32670;51.464;11.964;2023-11-21T03:33:31;3.50;;;3.20;;
46931;SDS011;32670;51.464;11.964;2023-11-21T03:35:57;8.03;;;3.67;;
46931;SDS011;32670;51.464;11.964;2023-11-21T03:38:23;3.53;;;3.13;;
46931;SDS011;32670;51.464;11.964;2023-11-21T03:40:48;4.30;;;3.20;;
46931;SDS011;32670;51.464;11.964;2023-11-21T03:43:14;7.53;;;3.77;;
46931;SDS011;32670;51.464;11.964;2023-11-21T03:45:39;2.87;;;2.57;;
46931;SDS011;32670;51.464;11.964;2023-11-21T03:48:05;4.13;;;2.70;;
46931;SDS011;32670;51.464;11.964;2023-11-21T03:50:31;7.33;;;3.10;;
46931;SDS011;32670;51.464;11.964;2023-11-21T03:52:57;3.10;;;2.90;;
46931;SDS011;32670;51.464;11.964;2023-11-21T03:55:23;3.20;;;2.90;;
46931;SDS011;32670;51.464;11.964;2023-11-21T03:57:49;3.87;;;3.13;;
46931;SDS011;32670;51.464;11.964;2023-11-21T04:00:16;3.20;;;2.83;;
46931;SDS011;32670;51.464;11.964;2023-11-21T04:02:42;4.07;;;3.20;;
46931;SDS011;32670;51.464;11.964;2023-11-21T04:05:08;3.07;;;2.77;;
46931;SDS011;32670;51.464;11.964;2023-11-21T04:07:34;5.53;;;3.40;;
46931;SDS011;32670;51.464;11.964;2023-11-21T04:10:00;6.27;;;2.73;;
46931;SDS011;32670;51.464;11.964;2023-11-21T04:12:25;4.13;;;2.87;;
46931;SDS011;32670;51.464;11.964;2023-11-21T04:14:51;3.63;;;3.33;;
46931;SDS011;32670;51.464;11.964;2023-11-21T04:17:19;3.47;;;2.87;;
46931;SDS011;32670;51.464;11.964;2023-11-21T04:19:45;3.47;;;3.17;;
46931;SDS011;32670;51.464;11.964;2023-11-21T04:22:11;5.33;;;2.93;;
46931;SDS011;32670;51.464;11.964;2023-11-21T04:24:36;3.20;;;2.90;;
46931;SDS011;32670;51.464;11.964;2023-11-21T04:27:02;3.40;;;3.00;;
46931;SDS011;32670;51.464;11.964;2023-11-21T04:29:27;3.17;;;2.87;;
46931;SDS011;32670;51.464;11.964;2023-11-21T04:31:53;4.10;;;2.90;;
46931;SDS011;32670;51.464;11.964;2023-11-21T04:34:19;3.23;;;2.87;;
46931;SDS011;32670;51.464;11.964;2023-11-21T04:36:44;3.10;;;2.90;;
46931;SDS011;32670;51.464;11.964;2023-11-21T04:39:10;3.27;;;3.07;;
46931;SDS011;32670;51.464;11.964;2023-11-21T04:41:36;3.03;;;2.50;;
46931;SDS011;32670;51.464;11.964;2023-11-21T04:44:04;5.00;;;2.97;;
46931;SDS011;32670;51.464;11.964;2023-11-21T04:46:32;5.10;;;2.70;;
46931;SDS011;32670;51.464;11.964;2023-11-21T04:48:58;4.53;;;2.93;;
46931;SDS011;32670;51.464;11.964;2023-11-21T04:51:23;3.63;;;3.00;;
46931;SDS011;32670;51.464;11.964;2023-11-21T04:53:49;5.37;;;2.83;;
46931;SDS011;32670;51.464;11.964;2023-11-21T04:56:14;3.03;;;2.73;;
46931;SDS011;32670;51.464;11.964;2023-11-21T04:58:41;2.90;;;2.70;;
46931;SDS011;32670;51.464;11.964;2023-11-21T05:01:07;3.70;;;2.50;;
46931;SDS011;32670;51.464;11.964;2023-11-21T05:03:33;2.70;;;2.50;;
46931;SDS011;32670;51.464;11.964;2023-11-21T05:05:59;3.73;;;2.63;;
46931;SDS011;32670;51.464;11.964;2023-11-21T05:08:25;2.63;;;2.43;;
46931;SDS011;32670;51.464;11.964;2023-11-21T05:10:51;3.00;;;2.30;;
46931;SDS011;32670;51.464;11.964;2023-11-21T05:13:17;4.13;;;2.77;;
46931;SDS011;32670;51.464;11.964;2023-11-21T05:15:43;2.90;;;2.43;;
46931;SDS011;32670;51.464;11.964;2023-11-21T05:18:09;4.63;;;3.27;;
46931;SDS011;32670;51.464;11.964;2023-11-21T05:20:35;3.53;;;2.80;;
46931;SDS011;32670;51.464;11.964;2023-11-21T05:23:01;3.03;;;2.60;;
46931;SDS011;32670;51.464;11.964;2023-11-21T05:25:26;3.00;;;2.57;;
46931;SDS011;32670;51.464;11.964;2023-11-21T05:27:52;4.93;;;2.60;;
46931;SDS011;32670;51.464;11.964;2023-11-21T05:30:19;2.47;;;2.30;;
46931;SDS011;32670;51.464;11.964;2023-11-21T05:32:46;2.67;;;2.40;;
46931;SDS011;32670;51.464;11.964;2023-11-21T05:35:11;2.47;;;2.27;;
46931;SDS011;32670;51.464;11.964;2023-11-21T05:37:40;3.07;;;2.80;;
46931;SDS011;32670;51.464;11.964;2023-11-21T05:40:07;2.40;;;2.20;;
46931;SDS011;32670;51.464;11.964;2023-11-21T05:42:33;2.70;;;2.13;;
46931;SDS011;32670;51.464;11.964;2023-11-21T05:44:59;3.40;;;2.63;;
46931;SDS011;32670;51.464;11.964;2023-11-21T05:47:36;2.87;;;2.57;;
46931;SDS011;32670;51.464;11.964;2023-11-21T05:50:03;3.73;;;2.70;;
46931;SDS011;32670;51.464;11.964;2023-11-21T05:52:30;3.53;;;2.40;;
46931;SDS011;32670;51.464;11.964;2023-11-21T05:54:57;2.33;;;2.13;;
46931;SDS011;32670;51.464;11.964;2023-11-21T05:57:23;4.07;;;2.53;;
46931;SDS011;32670;51.464;11.964;2023-11-21T05:59:48;5.67;;;2.90;;
46931;SDS011;32670;51.464;11.964;2023-11-21T06:02:14;10.40;;;2.90;;
46931;SDS011;32670;51.464;11.964;2023-11-21T06:04:39;4.13;;;2.73;;
46931;SDS011;32670;51.464;11.964;2023-11-21T06:07:05;3.40;;;3.10;;
46931;SDS011;32670;51.464;11.964;2023-11-21T06:09:30;2.77;;;2.50;;
46931;SDS011;32670;51.464;11.964;2023-11-21T06:11:56;4.90;;;2.40;;
46931;SDS011;32670;51.464;11.964;2023-11-21T06:14:21;4.33;;;2.60;;
46931;SDS011;32670;51.464;11.964;2023-11-21T06:16:47;2.57;;;2.37;;
46931;SDS011;32670;51.464;11.964;2023-11-21T06:19:12;4.07;;;2.63;;
46931;SDS011;32670;51.464;11.964;2023-11-21T06:21:38;4.47;;;2.90;;
46931;SDS011;32670;51.464;11.964;2023-11-21T06:24:03;4.67;;;2.60;;
46931;SDS011;32670;51.464;11.964;2023-11-21T06:26:29;3.37;;;2.47;;
46931;SDS011;32670;51.464;11.964;2023-11-21T06:28:56;2.97;;;2.67;;
46931;SDS011;32670;51.464;11.964;2023-11-21T06:31:22;3.17;;;2.63;;
46931;SDS011;32670;51.464;11.964;2023-11-21T06:33:47;3.00;;;2.40;;
46931;SDS011;32670;51.464;11.964;2023-11-21T06:36:14;5.10;;;2.73;;
46931;SDS011;32670;51.464;11.964;2023-11-21T06:38:40;10.27;;;2.90;;
46931;SDS011;32670;51.464;11.964;2023-11-21T06:41:05;4.73;;;2.93;;
46931;SDS011;32670;51.464;11.964;2023-11-21T06:43:31;3.67;;;2.70;;
46931;SDS011;32670;51.464;11.964;2023-11-21T06:45:57;3.53;;;3.00;;
46931;SDS011;32670;51.464;11.964;2023-11-21T06:48:22;5.80;;;3.53;;
46931;SDS011;32670;51.464;11.964;2023-11-21T06:50:48;6.33;;;3.30;;
46931;SDS011;32670;51.464;11.964;2023-11-21T06:53:13;4.30;;;3.23;;
46931;SDS011;32670;51.464;11.964;2023-11-21T06:55:39;5.10;;;3.27;;
46931;SDS011;32670;51.464;11.964;2023-11-21T06:58:04;6.23;;;3.80;;
46931;SDS011;32670;51.464;11.964;2023-11-21T07:00:30;7.37;;;4.10;;
46931;SDS011;32670;51.464;11.964;2023-11-21T07:02:56;7.53;;;4.00;;
46931;SDS011;32670;51.464;11.964;2023-11-21T07:05:21;7.43;;;4.23;;
46931;SDS011;32670;51.464;11.964;2023-11-21T07:07:47;8.37;;;3.90;;
46931;SDS011;32670;51.464;11.964;2023-11-21T07:10:14;8.40;;;3.80;;
46931;SDS011;32670;51.464;11.964;2023-11-21T07:12:39;9.90;;;3.90;;
46931;SDS011;32670;51.464;11.964;2023-11-21T07:15:05;7.07;;;4.20;;
46931;SDS011;32670;51.464;11.964;2023-11-21T07:17:34;7.30;;;4.07;;
46931;SDS011;32670;51.464;11.964;2023-11-21T07:20:00;8.17;;;4.40;;
46931;SDS011;32670;51.464;11.964;2023-11-21T07:22:26;9.40;;;4.77;;
46931;SDS011;32670;51.464;11.964;2023-11-21T07:24:52;8.53;;;4.70;;
46931;SDS011;32670;51.464;11.964;2023-11-21T07:27:17;8.90;;;4.93;;
46931;SDS011;32670;51.464;11.964;2023-11-21T07:29:43;9.50;;;4.77;;
46931;SDS011;32670;51.464;11.964;2023-11-21T07:32:09;8.07;;;5.13;;
46931;SDS011;32670;51.464;11.964;2023-11-21T07:34:35;9.10;;;5.40;;
46931;SDS011;32670;51.464;11.964;2023-11-21T07:37:01;6.53;;;4.33;;
46931;SDS011;32670;51.464;11.964;2023-11-21T07:39:27;8.80;;;5.47;;
46931;SDS011;32670;51.464;11.964;2023-11-21T07:41:53;6.53;;;4.23;;
46931;SDS011;32670;51.464;11.964;2023-11-21T07:44:19;5.97;;;3.53;;
46931;SDS011;32670;51.464;11.964;2023-11-21T07:46:45;5.00;;;3.47;;
46931;SDS011;32670;51.464;11.964;2023-11-21T07:49:11;5.27;;;3.00;;
46931;SDS011;32670;51.464;11.964;2023-11-21T07:51:37;12.10;;;3.00;;
46931;SDS011;32670;51.464;11.964;2023-11-21T07:54:02;11.47;;;3.40;;
46931;SDS011;32670;51.464;11.964;2023-11-21T07:56:28;10.83;;;2.77;;
46931;SDS011;32670;51.464;11.964;2023-11-21T07:58:55;14.20;;;2.80;;
46931;SDS011;32670;51.464;11.964;2023-11-21T08:01:20;11.03;;;2.50;;
46931;SDS011;32670;51.464;11.964;2023-11-21T08:03:46;4.03;;;2.20;;
46931;SDS011;32670;51.464;11.964;2023-11-21T08:06:16;9.67;;;2.27;;
46931;SDS011;32670;51.464;11.964;2023-11-21T08:08:41;6.83;;;1.93;;
46931;SDS011;32670;51.464;11.964;2023-11-21T08:11:07;7.53;;;1.87;;
46931;SDS011;32670;51.464;11.964;2023-11-21T08:13:35;6.60;;;1.80;;
46931;SDS011;32670;51.464;11.964;2023-11-21T08:16:00;8.53;;;1.90;;
46931;SDS011;32670;51.464;11.964;2023-11-21T08:18:30;6.23;;;1.67;;
46931;SDS011;32670;51.464;11.964;2023-11-21T08:20:55;6.83;;;1.93;;
46931;SDS011;32670;51.464;11.964;2023-11-21T08:23:22;5.93;;;1.70;;
46931;SDS011;32670;51.464;11.964;2023-11-21T08:25:51;6.20;;;1.63;;
46931;SDS011;32670;51.464;11.964;2023-11-21T08:28:17;4.37;;;1.90;;
46931;SDS011;32670;51.464;11.964;2023-11-21T08:30:43;5.53;;;1.80;;
46931;SDS011;32670;51.464;11.964;2023-11-21T08:33:09;4.40;;;1.50;;
46931;SDS011;32670;51.464;11.964;2023-11-21T08:35:36;6.43;;;1.73;;
46931;SDS011;32670;51.464;11.964;2023-11-21T08:38:02;4.77;;;1.63;;
46931;SDS011;32670;51.464;11.964;2023-11-21T08:40:28;6.00;;;1.70;;
46931;SDS011;32670;51.464;11.964;2023-11-21T08:42:54;3.37;;;1.67;;
46931;SDS011;32670;51.464;11.964;2023-11-21T08:45:19;4.47;;;1.60;;
46931;SDS011;32670;51.464;11.964;2023-11-21T08:47:46;5.20;;;1.70;;
46931;SDS011;32670;51.464;11.964;2023-11-21T08:50:12;4.93;;;1.50;;
46931;SDS011;32670;51.464;11.964;2023-11-21T08:52:38;3.47;;;1.60;;
46931;SDS011;32670;51.464;11.964;2023-11-21T08:55:05;3.73;;;1.73;;
46931;SDS011;32670;51.464;11.964;2023-11-21T08:57:40;4.97;;;1.60;;
46931;SDS011;32670;51.464;11.964;2023-11-21T09:00:09;2.10;;;1.37;;
46931;SDS011;32670;51.464;11.964;2023-11-21T09:02:37;3.73;;;1.90;;
46931;SDS011;32670;51.464;11.964;2023-11-21T09:05:04;6.47;;;1.60;;
46931;SDS011;32670;51.464;11.964;2023-11-21T09:07:30;4.53;;;1.70;;
46931;SDS011;32670;51.464;11.964;2023-11-21T09:09:56;1.50;;;1.30;;
46931;SDS011;32670;51.464;11.964;2023-11-21T09:12:21;2.40;;;1.47;;
46931;SDS011;32670;51.464;11.964;2023-11-21T09:14:47;4.07;;;1.47;;
46931;SDS011;32670;51.464;11.964;2023-11-21T09:17:13;3.73;;;1.57;;
46931;SDS011;32670;51.464;11.964;2023-11-21T09:19:39;3.97;;;1.43;;
46931;SDS011;32670;51.464;11.964;2023-11-21T09:22:05;4.40;;;1.60;;
46931;SDS011;32670;51.464;11.964;2023-11-21T09:24:32;4.07;;;1.30;;
46931;SDS011;32670;51.464;11.964;2023-11-21T09:26:57;2.40;;;1.40;;
46931;SDS011;32670;51.464;11.964;2023-11-21T09:29:24;1.53;;;1.30;;
46931;SDS011;32670;51.464;11.964;2023-11-21T09:31:51;1.83;;;1.17;;
46931;SDS011;32670;51.464;11.964;2023-11-21T09:34:16;3.00;;;1.50;;
46931;SDS011;32670;51.464;11.964;2023-11-21T09:36:44;1.73;;;1.30;;
46931;SDS011;32670;51.464;11.964;2023-11-21T09:39:10;2.07;;;1.43;;
46931;SDS011;32670;51.464;11.964;2023-11-21T09:41:52;3.20;;;1.40;;
46931;SDS011;32670;51.464;11.964;2023-11-21T09:44:27;2.03;;;1.47;;
46931;SDS011;32670;51.464;11.964;2023-11-21T09:47:00;2.67;;;1.23;;
46931;SDS011;32670;51.464;11.964;2023-11-21T09:49:26;3.57;;;1.20;;
46931;SDS011;32670;51.464;11.964;2023-11-21T09:51:54;1.80;;;1.33;;
46931;SDS011;32670;51.464;11.964;2023-11-21T09:54:23;2.43;;;1.13;;
46931;SDS011;32670;51.464;11.964;2023-11-21T09:56:49;2.80;;;1.30;;
46931;SDS011;32670;51.464;11.964;2023-11-21T09:59:15;3.50;;;1.23;;
46931;SDS011;32670;51.464;11.964;2023-11-21T10:01:41;1.93;;;1.20;;
46931;SDS011;32670;51.464;11.964;2023-11-21T10:04:08;1.70;;;1.13;;
46931;SDS011;32670;51.464;11.964;2023-11-21T10:06:39;3.63;;;1.30;;
46931;SDS011;32670;51.464;11.964;2023-11-21T10:09:11;1.63;;;1.37;;
46931;SDS011;32670;51.464;11.964;2023-11-21T10:11:39;2.20;;;1.40;;
46931;SDS011;32670;51.464;11.964;2023-11-21T10:14:06;3.00;;;1.20;;
46931;SDS011;32670;51.464;11.964;2023-11-21T10:16:35;1.90;;;1.17;;
46931;SDS011;32670;51.464;11.964;2023-11-21T10:19:02;2.27;;;1.30;;
46931;SDS011;32670;51.464;11.964;2023-11-21T10:21:29;2.40;;;1.10;;
46931;SDS011;32670;51.464;11.964;2023-11-21T10:23:55;2.67;;;0.97;;
46931;SDS011;32670;51.464;11.964;2023-11-21T10:26:21;1.73;;;1.17;;
46931;SDS011;32670;51.464;11.964;2023-11-21T10:28:55;1.60;;;0.97;;
46931;SDS011;32670;51.464;11.964;2023-11-21T10:31:22;1.40;;;1.10;;
46931;SDS011;32670;51.464;11.964;2023-11-21T10:33:49;1.30;;;1.10;;
46931;SDS011;32670;51.464;11.964;2023-11-21T10:36:24;2.70;;;1.10;;
46931;SDS011;32670;51.464;11.964;2023-11-21T10:38:54;1.10;;;1.00;;
46931;SDS011;32670;51.464;11.964;2023-11-21T10:41:20;1.43;;;1.10;;
46931;SDS011;32670;51.464;11.964;2023-11-21T10:43:46;2.03;;;1.20;;
46931;SDS011;32670;51.464;11.964;2023-11-21T10:46:12;3.00;;;1.33;;
46931;SDS011;32670;51.464;11.964;2023-11-21T10:48:39;2.23;;;1.23;;
46931;SDS011;32670;51.464;11.964;2023-11-21T10:51:09;1.60;;;1.27;;
46931;SDS011;32670;51.464;11.964;2023-11-21T10:53:38;1.50;;;1.20;;
46931;SDS011;32670;51.464;11.964;2023-11-21T10:56:05;3.33;;;1.20;;
46931;SDS011;32670;51.464;11.964;2023-11-21T10:58:33;1.57;;;1.03;;
46931;SDS011;32670;51.464;11.964;2023-11-21T11:01:00;2.10;;;1.00;;
46931;SDS011;32670;51.464;11.964;2023-11-21T11:03:29;3.07;;;0.80;;
46931;SDS011;32670;51.464;11.964;2023-11-21T11:05:58;1.57;;;1.10;;
46931;SDS011;32670;51.464;11.964;2023-11-21T11:08:24;1.17;;;1.00;;
46931;SDS011;32670;51.464;11.964;2023-11-21T11:10:52;1.20;;;1.10;;
46931;SDS011;32670;51.464;11.964;2023-11-21T11:13:18;1.13;;;1.00;;
46931;SDS011;32670;51.464;11.964;2023-11-21T11:15:47;1.67;;;1.10;;
46931;SDS011;32670;51.464;11.964;2023-11-21T11:18:13;1.77;;;1.13;;
46931;SDS011;32670;51.464;11.964;2023-11-21T11:20:40;1.30;;;1.00;;
46931;SDS011;32670;51.464;11.964;2023-11-21T11:26:07;1.27;;;1.17;;
46931;SDS011;32670;51.464;11.964;2023-11-21T11:29:26;2.73;;;1.20;;
46931;SDS011;32670;51.464;11.964;2023-11-21T11:34:46;2.20;;;1.20;;
46931;SDS011;32670;51.464;11.964;2023-11-21T11:37:18;1.20;;;1.10;;
46931;SDS011;32670;51.464;11.964;2023-11-21T11:39:44;2.70;;;1.20;;
46931;SDS011;32670;51.464;11.964;2023-11-21T11:42:14;1.03;;;0.90;;
46931;SDS011;32670;51.464;11.964;2023-11-21T11:47:15;1.73;;;1.00;;
46931;SDS011;32670;51.464;11.964;2023-11-21T11:52:34;1.47;;;1.13;;
46931;SDS011;32670;51.464;11.964;2023-11-21T11:55:01;1.43;;;1.17;;
46931;SDS011;32670;51.464;11.964;2023-11-21T11:57:29;1.37;;;1.00;;
46931;SDS011;32670;51.464;11.964;2023-11-21T12:02:49;1.10;;;1.00;;
46931;SDS011;32670;51.464;11.964;2023-11-21T12:05:16;1.50;;;1.20;;
46931;SDS011;32670;51.464;11.964;2023-11-21T12:07:50;1.30;;;1.20;;
46931;SDS011;32670;51.464;11.964;2023-11-21T12:10:21;1.30;;;1.10;;
46931;SDS011;32670;51.464;11.964;2023-11-21T12:12:50;1.20;;;1.00;;
46931;SDS011;32670;51.464;11.964;2023-11-21T12:15:20;1.60;;;1.00;;
46931;SDS011;32670;51.464;11.964;2023-11-21T12:17:46;1.10;;;1.00;;
46931;SDS011;32670;51.464;11.964;2023-11-21T12:20:14;1.27;;;1.17;;
46931;SDS011;32670;51.464;11.964;2023-11-21T12:22:45;1.13;;;1.03;;
46931;SDS011;32670;51.464;11.964;2023-11-21T12:25:13;1.47;;;1.20;;
46931;SDS011;32670;51.464;11.964;2023-11-21T12:27:41;1.73;;;1.30;;
46931;SDS011;32670;51.464;11.964;2023-11-21T12:30:08;1.30;;;1.20;;
46931;SDS011;32670;51.464;11.964;2023-11-21T12:32:38;1.10;;;1.00;;
46931;SDS011;32670;51.464;11.964;2023-11-21T12:35:11;1.83;;;1.00;;
46931;SDS011;32670;51.464;11.964;2023-11-21T12:37:40;1.07;;;0.97;;
46931;SDS011;32670;51.464;11.964;2023-11-21T12:40:08;1.17;;;1.00;;
46931;SDS011;32670;51.464;11.964;2023-11-21T12:42:40;1.30;;;1.20;;
46931;SDS011;32670;51.464;11.964;2023-11-21T12:45:07;1.23;;;1.10;;
46931;SDS011;32670;51.464;11.964;2023-11-21T12:47:39;1.20;;;0.90;;
46931;SDS011;32670;51.464;11.964;2023-11-21T12:50:05;1.43;;;1.00;;
46931;SDS011;32670;51.464;11.964;2023-11-21T12:52:32;0.90;;;0.90;;
46931;SDS011;32670;51.464;11.964;2023-11-21T12:54:57;1.30;;;1.00;;
46931;SDS011;32670;51.464;11.964;2023-11-21T12:57:26;0.80;;;0.80;;
46931;SDS011;32670;51.464;11.964;2023-11-21T12:59:56;1.40;;;1.00;;
46931;SDS011;32670;51.464;11.964;2023-11-21T13:02:22;1.33;;;1.10;;
46931;SDS011;32670;51.464;11.964;2023-11-21T13:04:54;1.50;;;1.07;;
46931;SDS011;32670;51.464;11.964;2023-11-21T13:07:23;1.00;;;1.00;;
46931;SDS011;32670;51.464;11.964;2023-11-21T13:09:51;1.33;;;1.10;;
46931;SDS011;32670;51.464;11.964;2023-11-21T13:12:17;1.10;;;1.00;;
46931;SDS011;32670;51.464;11.964;2023-11-21T13:14:49;0.97;;;0.90;;
46931;SDS011;32670;51.464;11.964;2023-11-21T13:17:15;1.03;;;1.00;;
46931;SDS011;32670;51.464;11.964;2023-11-21T13:19:40;0.93;;;0.90;;
46931;SDS011;32670;51.464;11.964;2023-11-21T13:22:07;0.83;;;0.77;;
46931;SDS011;32670;51.464;11.964;2023-11-21T13:24:36;0.80;;;0.80;;
46931;SDS011;32670;51.464;11.964;2023-11-21T13:27:01;1.27;;;1.00;;
46931;SDS011;32670;51.464;11.964;2023-11-21T13:29:27;0.80;;;0.80;;
46931;SDS011;32670;51.464;11.964;2023-11-21T13:31:54;0.80;;;0.80;;
46931;SDS011;32670;51.464;11.964;2023-11-21T13:34:20;1.00;;;0.90;;
46931;SDS011;32670;51.464;11.964;2023-11-21T13:36:47;1.77;;;1.00;;
46931;SDS011;32670;51.464;11.964;2023-11-21T13:39:13;2.63;;;0.80;;
46931;SDS011;32670;51.464;11.964;2023-11-21T13:41:40;1.00;;;1.00;;
46931;SDS011;32670;51.464;11.964;2023-11-21T13:44:06;1.30;;;1.00;;
46931;SDS011;32670;51.464;11.964;2023-11-21T13:46:41;0.93;;;0.90;;
46931;SDS011;32670;51.464;11.964;2023-11-21T13:49:06;0.90;;;0.90;;
46931;SDS011;32670;51.464;11.964;2023-11-21T13:51:35;1.60;;;0.97;;
46931;SDS011;32670;51.464;11.964;2023-11-21T13:54:09;1.57;;;0.90;;
46931;SDS011;32670;51.464;11.964;2023-11-21T13:56:35;1.00;;;0.90;;
46931;SDS011;32670;51.464;11.964;2023-11-21T13:59:01;1.00;;;1.00;;
46931;SDS011;32670;51.464;11.964;2023-11-21T14:01:38;0.93;;;0.80;;
46931;SDS011;32670;51.464;11.964;2023-11-21T14:04:19;1.40;;;0.73;;
46931;SDS011;32670;51.464;11.964;2023-11-21T14:06:56;0.80;;;0.80;;
46931;SDS011;32670;51.464;11.964;2023-11-21T14:09:22;1.10;;;1.00;;
46931;SDS011;32670;51.464;11.964;2023-11-21T14:11:54;1.03;;;0.93;;
46931;SDS011;32670;51.464;11.964;2023-11-21T14:14:22;0.80;;;0.73;;
46931;SDS011;32670;51.464;11.964;2023-11-21T14:16:50;0.90;;;0.90;;
46931;SDS011;32670;51.464;11.964;2023-11-21T14:19:16;0.80;;;0.80;;
46931;SDS011;32670;51.464;11.964;2023-11-21T14:21:45;0.80;;;0.80;;
46931;SDS011;32670;51.464;11.964;2023-11-21T14:24:13;1.00;;;0.80;;
46931;SDS011;32670;51.464;11.964;2023-11-21T14:26:43;0.83;;;0.80;;
46931;SDS011;32670;51.464;11.964;2023-11-21T14:29:16;0.97;;;0.80;;
46931;SDS011;32670;51.464;11.964;2023-11-21T14:31:45;1.10;;;1.00;;
46931;SDS011;32670;51.464;11.964;2023-11-21T14:34:11;0.83;;;0.83;;
46931;SDS011;32670;51.464;11.964;2023-11-21T14:36:38;0.77;;;0.77;;
46931;SDS011;32670;51.464;11.964;2023-11-21T14:39:04;0.77;;;0.77;;
46931;SDS011;32670;51.464;11.964;2023-11-21T14:41:34;1.37;;;0.87;;
46931;SDS011;32670;51.464;11.964;2023-11-21T14:44:02;1.80;;;0.90;;
46931;SDS011;32670;51.464;11.964;2023-11-21T14:46:28;1.13;;;1.00;;
46931;SDS011;32670;51.464;11.964;2023-11-21T14:48:54;1.20;;;1.10;;